Terminal Aerodrome Forecast
Issued by NWS La Crosse, WI

Home | Current Version | Previous Version | Text Only | Print | Product List | Glossary On
Versions: 1 2 3 4 5 6 7 8 9 10 11 12 13 14 15 16 17 18 19 20 21 22 23 24 25
000
FTUS43 KARX 052330
TAFRST
TAF
KRST 052330Z 0600/0624 18015G23KT P6SM OVC100
     FM060600 20012KT 4SM -SNDZ BR OVC008
     FM061000 24011G19KT P6SM OVC015
     FM061500 26016G24KT P6SM BKN015=

USA.gov is the U.S. government's official web portal to all federal, state and local government web resources and services.